Tiempo atmosférico en la estación meteorológica de Calanda, Teruel (459 m.)



Fecha
DESCASC
Temp. máxima en grados centígrados (hora)
DESCASC
Temp. mínima en grados centígrados (hora)
DESCASC
Temp. media en grados centígrados
DESCASC
Racha de viento máxima en m/sg (hora)
DESCASC
Velocidad máxima media en intervalos de 10 minutos(hora)
DESCASC
Precipitaciones diarias en mm
DESCASC
Precipitaciones de 00:00 a 06:00 en mm
DESCASC
Precipitaciones de 06:00 a 12:00 en mm
DESCASC
Precipitaciones de 12:00 a 18:00 en mm
DESCASC
Precipitaciones de 18:00 a 24:00 en mm
DESCASC
18-01-2018 -- (--) -- (--) -- -- (--) -- (--) -- 0 -- 0 0
17-01-2018 12.7 (14:00) 5.9 (23:59) 9.3 -- (--) -- (--) 0 0 0 0 0
16-01-2018 16.9 (15:40) 2.7 (00:00) 9.8 -- (--) -- (--) 0 0 0 0 0
15-01-2018 11 (15:10) 2.5 (23:50) 6.8 -- (--) -- (--) 0 0 0 0 0
14-01-2018 9.4 (12:40) 4.1 (00:00) 6.7 -- (--) -- (--) 0 0 0 0 0
13-01-2018 7.6 (11:50) 2.8 (00:00) 5.2 -- (--) -- (--) 1.2 0 0 0 1.2
12-01-2018 11.3 (13:40) 3.8 (00:00) 7.6 -- (--) -- (--) 0 0 0 0 0
11-01-2018 9.5 (13:50) 5.1 (00:00) 7.3 -- (--) -- (--) 0 0 0 0 0
10-01-2018 12.4 (14:40) 2.3 (00:00) 7.3 -- (--) -- (--) 0.4 0.4 0 0 0
09-01-2018 9.3 (16:50) 0.9 (00:00) 5.1 -- (--) -- (--) 0 0 0 0 0
08-01-2018 7.6 (15:30) 0.7 (00:00) 4.1 -- (--) -- (--) 0 0 0 0 0
07-01-2018 6.3 (16:20) 2 (00:00) 4.2 -- (--) -- (--) 2.6 2.2 0.4 0 0
06-01-2018 8.9 (01:00) 3.8 (00:00) 6.3 -- (--) -- (--) 17 0 0 2.2 14.8
05-01-2018 17.9 (14:20) 6.2 (00:00) 12 10.83 (03:10) 6.94 (03:10) 0 0 0 0 0
04-01-2018 19.8 (15:50) 10.5 (22:10) 15.1 -- (--) -- (--) 0 0 0 0 0
03-01-2018 19.9 (15:00) 12.6 (00:00) 16.3 -- (--) -- (--) 0 0 0 0 0
02-01-2018 17.8 (14:50) 9.5 (00:00) 13.6 -- (--) -- (--) 0 0 0 0 0
01-01-2018 15.9 (15:00) 6.2 (00:00) 11 -- (--) -- (--) 0 0 0 0 0
31-12-2017 15 (16:50) 5.2 (00:00) 10.1 18.89 (21:10) 10.56 (21:20) 0 0 0 0 0
30-12-2017 18.9 (15:00) 6.3 (00:00) 12.6 13.89 (08:10) 8.33 (08:00) 0 0 0 0 0
29-12-2017 16.1 (14:10) 4.2 (00:00) 10.2 13.89 (15:30) 7.22 (14:00) 0.4 0 0.4 0 0
28-12-2017 13.6 (15:40) 4.7 (00:00) 9.2 15 (15:40) 6.39 (15:40) 0 0 0 0 0
27-12-2017 12 (13:00) 5.5 (00:00) 8.8 23.33 (05:20) 12.78 (05:20) 0.4 0.4 0 0 0
26-12-2017 11.2 (13:00) 2.7 (00:00) 6.9 19.44 (14:10) 6.39 (15:20) 0 0 0 0 0
25-12-2017 5.1 (22:20) -6.1 (-00:0) -0.5 5.28 (22:00) 3.33 (22:00) 0 0 0 0 0
24-12-2017 9.8 (15:10) -2.5 (-00:0) 3.7 6.67 (08:40) 5 (00:30) 0 0 0 0 0

Gráficas

Temp. máximas Temp. mínimas Temp. medias Precipitaciones Rachas de viento máximas Velocidades máximas media en intervalos de 10 minutos

Datos horarios

Fecha y hora oficial Temperatura (ºC) Velocidad del viento (km/h) Dirección del viento Racha (km/h) Dirección de racha Precipitación (mm) Presión (hPa) Tendencia (hPa) Humedad (%)
2018-01-22 23:00:00 12.3 21 Sudoeste 36 Sudoeste 0 -- -- 63
2018-01-22 22:00:00 12.5 19 Sudoeste 29 Sudoeste 0 -- -- 60
2018-01-22 21:00:00 12 13 Sudoeste 22 Sudoeste 0 -- -- 62
2018-01-22 20:00:00 12.7 14 Sudoeste 24 Sudoeste 0 -- -- 56
2018-01-22 19:00:00 13.8 15 Oeste 30 Oeste 0 -- -- 50
2018-01-22 18:00:00 14.9 10 Oeste 30 Noroeste 0 -- -- 44
2018-01-22 17:00:00 17 20 Noroeste 33 Noroeste 0 -- -- 34
2018-01-22 16:00:00 17.6 18 Noroeste 32 Noroeste 0 -- -- 31
2018-01-22 15:00:00 16.5 16 Noroeste 26 Noroeste 0 -- -- 39
2018-01-22 14:00:00 16.3 16 Noroeste 26 Noroeste 0.4 -- -- 41
2018-01-22 13:00:00 16.4 16 Oeste 24 Noroeste 0 -- -- 39
2018-01-22 12:00:00 15.3 16 Noroeste 25 Oeste 0 -- -- 43
2018-01-22 11:00:00 14.8 13 Oeste 24 Oeste 0 -- -- 45
2018-01-22 10:00:00 12.4 12 Sudoeste 22 Oeste 0 -- -- 56
2018-01-22 09:00:00 10.2 15 Oeste 26 Sudoeste 0 -- -- 66
2018-01-22 08:00:00 10.1 15 Oeste 26 Oeste 0 -- -- 65
2018-01-22 07:00:00 10.2 15 Sudoeste 25 Sudoeste 0 -- -- 72
2018-01-22 06:00:00 7.8 5 Oeste 14 Oeste 0 -- -- 81
2018-01-22 05:00:00 9.4 9 Oeste 19 Oeste 0 -- -- 74
2018-01-22 04:00:00 10.2 12 Sudoeste 24 Sudoeste 0 -- -- 71
2018-01-22 03:00:00 10.9 18 Sudoeste 28 Sudoeste 0 -- -- 68
2018-01-22 02:00:00 11 15 Sudoeste 22 Sudoeste 0 -- -- 68
2018-01-22 01:00:00 11.9 12 Oeste 28 Oeste 0 -- -- 68
2018-01-22 00:00:00 12.4 13 Oeste 29 Oeste 0 -- -- 68
2018-01-21 23:00:00 12.5 17 Oeste 28 Oeste 0 -- -- 69
2018-01-21 22:00:00 12.8 15 Oeste 28 Oeste 0 -- -- 69
2018-01-21 21:00:00 13 14 Oeste 41 Oeste 0 -- -- 67
2018-01-21 20:00:00 13.5 22 Oeste 35 Oeste 0 -- -- 65
2018-01-21 19:00:00 13.8 18 Oeste 33 Oeste 0 -- -- 63
2018-01-21 18:00:00 14.6 14 Oeste 37 Noroeste 0 -- -- 60
2018-01-21 17:00:00 16 21 Noroeste 46 Noroeste 0 -- -- 55
2018-01-21 16:00:00 17.2 27 Noroeste 50 Noroeste 0 -- -- 51
2018-01-21 15:00:00 17.5 33 Noroeste 57 Noroeste 0 -- -- 47
2018-01-21 14:00:00 17.3 35 Noroeste 54 Noroeste 0 -- -- 47
2018-01-21 13:00:00 16.5 30 Noroeste 51 Noroeste 0 -- -- 49
2018-01-21 12:00:00 15.9 31 Noroeste 49 Noroeste 0 -- -- 51
2018-01-21 11:00:00 14 19 Oeste 37 Oeste 0 -- -- 56
2018-01-21 10:00:00 11.9 17 Oeste 25 Oeste 0 -- -- 62
2018-01-21 09:00:00 12 17 Oeste 33 Oeste 0 -- -- 61
2018-01-21 08:00:00 12.3 15 Sudoeste 35 Sudoeste 0 -- -- 60
2018-01-21 07:00:00 13 20 Sudoeste 40 Oeste 0 -- -- 57
2018-01-21 06:00:00 13 23 Oeste 41 Oeste 0 -- -- 58
2018-01-21 05:00:00 12.9 19 Oeste 34 Oeste 0 -- -- 57
2018-01-21 04:00:00 12.8 23 Oeste 44 Oeste 0 -- -- 56
2018-01-21 03:00:00 12.5 19 Oeste 34 Oeste 0 -- -- 55
2018-01-21 02:00:00 12 23 Oeste 45 Oeste 0 -- -- 56
2018-01-21 01:00:00 12.9 30 Oeste 47 Oeste 0 -- -- 52
2018-01-21 00:00:00 12.9 28 Oeste 45 Oeste 0 -- -- 52
2018-01-20 23:00:00 12.9 29 Oeste 52 Oeste 0 -- -- 51
2018-01-20 22:00:00 12.9 30 Oeste 45 Oeste 0 -- -- 47
2018-01-20 21:00:00 12.9 22 Oeste 46 Oeste 0 -- -- 42
2018-01-20 20:00:00 13.4 31 Oeste 49 Oeste 0 -- -- 38
2018-01-20 19:00:00 13.9 22 Oeste 38 Oeste 0 -- -- 38
2018-01-20 18:00:00 15 18 Oeste 35 Oeste 0 -- -- 30
2018-01-20 17:00:00 16.8 22 Oeste 37 Oeste 0 -- -- 26
2018-01-20 16:00:00 17 25 Oeste 49 Oeste 0 -- -- 24
2018-01-20 15:00:00 17.1 29 Oeste 49 Oeste 0 -- -- 20
2018-01-20 14:00:00 16.8 28 Oeste 43 Oeste 0 -- -- 23
2018-01-20 13:00:00 15.9 22 Oeste 33 Oeste 0 -- -- 28
2018-01-20 12:00:00 13.2 11 Norte 36 Oeste 0 -- -- 41
2018-01-20 11:00:00 12.1 24 Oeste 42 Oeste 0 -- -- 39
2018-01-20 10:00:00 8.8 12 Oeste 19 Sudoeste 0 -- -- 52
2018-01-20 09:00:00 5.4 4 Sudoeste 22 Sudoeste 0 -- -- 63
2018-01-20 08:00:00 6 10 Oeste 23 Oeste 0 -- -- 62
2018-01-20 07:00:00 6.1 13 Oeste 19 Sudoeste 0 -- -- 62
2018-01-20 06:00:00 6.3 13 Oeste 29 Oeste 0 -- -- 62
2018-01-20 05:00:00 7.4 18 Oeste 32 Oeste 0 -- -- 58
2018-01-20 04:00:00 8.3 18 Oeste 36 Oeste 0 -- -- 56
2018-01-20 03:00:00 7.3 13 Oeste 25 Oeste 0 -- -- 60
2018-01-20 02:00:00 7.9 18 Oeste 34 Oeste 0 -- -- 58
2018-01-20 01:00:00 8.4 23 Oeste 44 Oeste 0 -- -- 56
2018-01-20 00:00:00 7.9 27 Oeste 42 Oeste 0 -- -- 65
2018-01-19 23:00:00 8.3 15 Oeste 47 Noroeste 0 -- -- 62
2018-01-19 22:00:00 8.6 27 Oeste 42 Oeste 0 -- -- 66
2018-01-19 21:00:00 8.9 23 Noroeste 39 Noroeste 0 -- -- 67
2018-01-19 20:00:00 9.9 27 Noroeste 45 Noroeste 0 -- -- 64
2018-01-19 19:00:00 10.7 19 Noroeste 38 Noroeste 0 -- -- 63
2018-01-19 18:00:00 11.7 19 Noroeste 31 Noroeste 0 -- -- 60
2018-01-19 17:00:00 13.4 18 Noroeste 44 Noroeste 0 -- -- 54
2018-01-19 16:00:00 14.1 30 Noroeste 50 Noroeste 0 -- -- 49
2018-01-19 15:00:00 14.3 28 Noroeste 47 Oeste 0 -- -- 48
2018-01-19 14:00:00 13.5 26 Noroeste 46 Noroeste 0 -- -- 49
2018-01-19 13:00:00 13.2 25 Oeste 41 Oeste 0 -- -- 51
2018-01-19 12:00:00 11.5 18 Oeste 32 Oeste 0 -- -- 58
2018-01-19 11:00:00 10.8 21 Oeste -- -- -- -- -- 61
2018-01-19 10:00:00 9.4 12 Oeste -- -- -- -- -- 68
2018-01-19 09:00:00 7.8 12 Sudoeste -- -- -- -- -- 73
2018-01-19 08:00:00 8 15 Sudoeste 28 Sudoeste 0 -- -- 73
2018-01-19 07:00:00 8 16 Sudoeste 25 Sudoeste 0 -- -- 71
2018-01-19 06:00:00 8 15 Sudoeste 23 Oeste 0 -- -- 68
2018-01-19 05:00:00 7 12 Oeste 22 Sudoeste 0 -- -- 68
2018-01-19 04:00:00 7.5 16 Sudoeste 23 Sudoeste 0 -- -- 63
2018-01-19 03:00:00 7.7 11 Oeste 18 Sudoeste 0 -- -- 65
2018-01-19 02:00:00 5.3 3 Sudoeste 15 Sudoeste 0 -- -- 64
2018-01-19 01:00:00 5.7 9 Oeste 12 Oeste 0 -- -- 63
2018-01-19 00:00:00 8.2 6 Oeste 21 Sudoeste 0 -- -- 51
2018-01-18 23:00:00 8.5 13 Sudoeste 23 Sudoeste 0 -- -- 50
2018-01-18 22:00:00 8.4 10 Sudoeste 23 Sudoeste 0 -- -- 52
2018-01-18 21:00:00 8.6 13 Sudoeste 22 Sudoeste 0 -- -- 53
2018-01-18 20:00:00 7.7 4 Sudoeste 10 Sudoeste 0 -- -- 58
2018-01-18 19:00:00 7.4 5 Oeste 9 Oeste 0 -- -- 62
2018-01-18 18:00:00 11.9 0 Calma 7 Norte 0 -- -- 45
2018-01-18 17:00:00 14.1 2 Nordeste 8 Noroeste 0 -- -- 37
2018-01-18 16:00:00 13.7 5 Norte 15 Norte 0 -- -- 38
2018-01-18 15:00:00 13.7 9 Norte 15 Noroeste 0 -- -- 36
2018-01-18 14:00:00 14.2 6 Nordeste 12 Este 0 -- -- 32
2018-01-18 13:00:00 13.5 4 Este 10 Sudeste 0 -- -- 32
2018-01-18 12:00:00 11.7 -- -- -- -- -- -- -- 38
2018-01-18 11:00:00 -- -- -- -- -- -- -- -- --
2018-01-18 10:00:00 6.1 -- -- -- -- 0 970.9 0.3 59
2018-01-18 09:00:00 3.2 -- -- -- -- 0 970.8 0.1 75
2018-01-18 08:00:00 3.5 -- -- -- -- 0 970.6 -0.3 74
2018-01-18 07:00:00 3.6 -- -- -- -- 0 970.6 -0.8 77
2018-01-18 06:00:00 3.8 -- -- -- -- 0 970.7 -1.5 75
2018-01-18 05:00:00 4.6 -- -- -- -- 0 970.9 -1.7 71
2018-01-18 04:00:00 5.1 -- -- -- -- 0 971.4 -1.2 72
2018-01-18 03:00:00 5.3 -- -- -- -- 0 972.2 -0.4 73
2018-01-18 02:00:00 5.5 -- -- -- -- 0 972.6 -0.2 74
2018-01-18 01:00:00 5.8 -- -- -- -- 0 972.6 0.1 72
2018-01-18 00:00:00 5.9 -- -- -- -- 0 972.6 0.6 70
2018-01-17 23:00:00 6.4 -- -- -- -- 0 972.8 0.8 68
2018-01-17 22:00:00 6.9 -- -- -- -- 0 972.5 0.9 65
2018-01-17 21:00:00 7.9 -- -- -- -- 0 972 1.1 61
2018-01-17 20:00:00 8.7 -- -- -- -- 0 972 1.7 55
2018-01-17 19:00:00 9.4 -- -- -- -- 0 971.6 2 52
2018-01-17 18:00:00 10.2 -- -- -- -- 0 970.9 1.4 48
2018-01-17 17:00:00 11 -- -- -- -- 0 970.3 0.3 46
2018-01-17 16:00:00 11.7 -- -- -- -- 0 969.6 -0.9 46
2018-01-17 15:00:00 11.7 -- -- -- -- 0 969.5 -1.9 50
2018-01-17 14:00:00 12.7 -- -- -- -- 0 970 -0.8 44
2018-01-17 13:00:00 12.4 -- -- -- -- 0 970.5 0.8 45
2018-01-17 12:00:00 12 -- -- -- -- 0 971.4 2.5 53
2018-01-17 11:00:00 11.5 -- -- -- -- 0 970.8 2.5 59
2018-01-17 10:00:00 11.3 -- -- -- -- 0 969.7 1.9 63
2018-01-17 09:00:00 10.6 -- -- -- -- 0 968.9 1.4 66
2018-01-17 08:00:00 10.9 -- -- -- -- 0 968.3 0.8 65
2018-01-17 07:00:00 11.3 -- -- -- -- 0 967.8 0.5 63
2018-01-17 06:00:00 11.7 -- -- -- -- 0 967.5 0.5 61
2018-01-17 05:00:00 11.5 -- -- -- -- 0 967.5 0.1 60
2018-01-17 04:00:00 11.2 -- -- -- -- 0 967.3 -0.9 61
2018-01-17 03:00:00 11.2 -- -- -- -- 0 967 -0.9 61
2018-01-17 02:00:00 11.4 -- -- -- -- 0 967.4 -0.8 61
2018-01-17 01:00:00 11.5 -- -- -- -- 0 968.2 -0.3 61
2018-01-17 00:00:00 11.8 -- -- -- -- 0 967.9 -0.1 61
2018-01-16 23:00:00 10.8 -- -- -- -- 0 968.2 0.4 66
2018-01-16 22:00:00 9.6 -- -- -- -- 0 968.5 0.7 72
2018-01-16 21:00:00 9.9 -- -- -- -- 0 968 -0.2 72
2018-01-16 20:00:00 10.1 -- -- -- -- 0 967.8 -0.3 70
2018-01-16 19:00:00 11.5 -- -- -- -- 0 967.8 -0.3 65
2018-01-16 18:00:00 13.2 -- -- -- -- 0 968.2 0 58
2018-01-16 17:00:00 15.4 -- -- -- -- 0 968.1 -0.9 50
2018-01-16 16:00:00 16.4 -- -- -- -- 0 968.1 -2 46
2018-01-16 15:00:00 16.7 -- -- -- -- 0 968.2 -2.5 43
2018-01-16 14:00:00 15.9 -- -- -- -- 0 969 -1.8 45
2018-01-16 13:00:00 15.3 -- -- -- -- 0 970.1 -0.5 48
2018-01-16 12:00:00 14.5 -- -- -- -- 0 970.7 0.7 48
2018-01-16 11:00:00 13.1 -- -- -- -- 0 970.8 1.8 51
2018-01-16 10:00:00 10.6 -- -- -- -- 0 970.6 1.7 54
2018-01-16 09:00:00 7.9 -- -- -- -- 0 970 1.2 62
2018-01-16 08:00:00 8.2 -- -- -- -- 0 969 0.2 58
2018-01-16 07:00:00 6.2 -- -- -- -- 0 968.9 0 69
2018-01-16 06:00:00 8 -- -- -- -- 0 968.8 -0.6 56
2018-01-16 05:00:00 7.1 -- -- -- -- 0 968.8 -0.9 58
2018-01-16 04:00:00 8.5 -- -- -- -- 0 968.9 -1.1 50
2018-01-16 03:00:00 7.7 -- -- -- -- 0 969.4 -1.1 48
2018-01-16 02:00:00 8.1 -- -- -- -- 0 969.7 -0.6 45
2018-01-16 01:00:00 5.8 -- -- -- -- 0 970 -0.2 57
2018-01-16 00:00:00 2.7 -- -- -- -- 0 970.5 0.7 77
2018-01-15 23:00:00 4 -- -- -- -- 0 970.3 0.8 70
2018-01-15 22:00:00 3.4 -- -- -- -- 0 970.2 0.5 75
2018-01-15 21:00:00 5.1 -- -- -- -- 0 969.8 0 69
2018-01-15 20:00:00 6.3 -- -- -- -- 0 969.5 0 68
2018-01-15 19:00:00 6.8 -- -- -- -- 0 969.7 0.7 66
2018-01-15 18:00:00 8.3 -- -- -- -- 0 969.8 0.5 59
2018-01-15 17:00:00 9.6 -- -- -- -- 0 969.5 -0.1 54
2018-01-15 16:00:00 10.5 -- -- -- -- 0 969 -1.8 49
2018-01-15 15:00:00 10.9 -- -- -- -- 0 969.3 -2.2 47
2018-01-15 14:00:00 9.8 -- -- -- -- -- 969.6 -1.9 50
2018-01-15 13:00:00 9.5 -- -- -- -- 0 970.8 0.2 53
2018-01-15 12:00:00 8.2 -- -- -- -- 0 971.5 1.7 62
2018-01-15 11:00:00 7 -- -- -- -- 0 971.5 2.1 67
2018-01-15 10:00:00 5.3 -- -- -- -- 0 970.6 1.9 74
2018-01-15 09:00:00 3.9 -- -- -- -- 0 969.8 1.7 78
2018-01-15 08:00:00 3.3 -- -- -- -- 0 969.4 1.4 81
2018-01-15 07:00:00 3.2 -- -- -- -- 0 968.7 0.9 81
2018-01-15 06:00:00 2.8 -- -- -- -- 0 968.1 0.6 82
2018-01-15 05:00:00 3.2 -- -- -- -- 0 968 0.7 81
2018-01-15 04:00:00 4 -- -- -- -- 0 967.8 0.5 77
2018-01-15 03:00:00 4.2 -- -- -- -- 0 967.5 0.2 78
2018-01-15 02:00:00 3.5 -- -- -- -- 0 967.3 0.6 81
2018-01-15 01:00:00 4 -- -- -- -- 0 967.3 1.2 80
2018-01-15 00:00:00 5.2 -- -- -- -- 0 967.3 1.6 76
2018-01-14 23:00:00 4.8 -- -- -- -- 0 966.7 1.5 80
2018-01-14 22:00:00 5.8 -- -- -- -- 0 966.1 1.9 72
2018-01-14 21:00:00 6.7 -- -- -- -- 0 965.7 2.3 66
2018-01-14 20:00:00 6.9 -- -- -- -- 0 965.2 2.3 66
2018-01-14 19:00:00 6.8 -- -- -- -- 0 964.2 1.7 74
2018-01-14 18:00:00 7.2 -- -- -- -- 0 963.4 1 70
2018-01-14 17:00:00 7.6 -- -- -- -- 0 962.9 0.6 65
2018-01-14 16:00:00 8 -- -- -- -- 0 962.5 -0.2 66
2018-01-14 15:00:00 8.6 -- -- -- -- 0 962.4 -0.8 61
2018-01-14 14:00:00 8.9 -- -- -- -- 0 962.3 -0.9 56
2018-01-14 13:00:00 9.1 -- -- -- -- 0 962.7 0.4 54
2018-01-14 12:00:00 7.9 -- -- -- -- 0 963.2 1.5 61
2018-01-14 11:00:00 6.9 -- -- -- -- 0 963.2 2.1 64
2018-01-14 10:00:00 5.8 -- -- -- -- 0 962.3 1.2 69
2018-01-14 09:00:00 5.5 -- -- -- -- 0 961.7 0.5 72
2018-01-14 08:00:00 5.2 -- -- -- -- 0 961.1 -0.2 72
2018-01-14 07:00:00 5.2 -- -- -- -- 0 961.1 -0.2 78
2018-01-14 06:00:00 5.7 -- -- -- -- 0 961.2 0.4 74
2018-01-14 05:00:00 5.8 -- -- -- -- 0 961.3 0.8 76
2018-01-14 04:00:00 5.8 -- -- -- -- 0 961.3 0.4 76
2018-01-14 03:00:00 5.6 -- -- -- -- 0 960.8 -0.6 81
2018-01-14 02:00:00 4.8 -- -- -- -- 0 960.5 -1.1 90
2018-01-14 01:00:00 4.5 -- -- -- -- 0 960.9 -0.7 91
2018-01-14 00:00:00 4.8 -- -- -- -- 0.2 961.4 0.4 91
2018-01-13 23:00:00 5 -- -- -- -- 0 961.6 0.6 90
2018-01-13 22:00:00 5.3 -- -- -- -- 1 961.6 0.3 89
2018-01-13 21:00:00 4.6 -- -- -- -- 0 961 0 87
2018-01-13 20:00:00 4.6 -- -- -- -- 0 961 0.5 85
2018-01-13 19:00:00 4.9 -- -- -- -- 0 961.3 0.1 82
2018-01-13 18:00:00 5.4 -- -- -- -- 0 961 -0.8 82
2018-01-13 17:00:00 6.2 -- -- -- -- 0 960.5 -1.9 75
2018-01-13 16:00:00 6.1 -- -- -- -- 0 961.2 -2.2 74
2018-01-13 15:00:00 6 -- -- -- -- 0 961.8 -2.5 73
2018-01-13 14:00:00 6 -- -- -- -- 0 962.4 -2.3 70
2018-01-13 13:00:00 6.6 -- -- -- -- 0 963.4 -1.2 65
2018-01-13 12:00:00 6.8 -- -- -- -- 0 964.3 -0.3 63
2018-01-13 11:00:00 6.4 -- -- -- -- 0 964.7 0.5 58
2018-01-13 10:00:00 4.5 -- -- -- -- 0 964.6 -0.2 64
2018-01-13 09:00:00 3 -- -- -- -- 0 964.6 -0.5 72
2018-01-13 08:00:00 4 -- -- -- -- 0 964.2 -1.4 61
2018-01-13 07:00:00 4.4 -- -- -- -- 0 964.8 -1.6 64
2018-01-13 06:00:00 3.9 -- -- -- -- 0 965.1 -1.5 67
2018-01-13 05:00:00 3.7 -- -- -- -- 0 965.6 -1.4 63
2018-01-13 04:00:00 3.6 -- -- -- -- 0 966.4 -1.3 66
2018-01-13 03:00:00 4.1 -- -- -- -- 0 966.6 -1.5 64
2018-01-13 02:00:00 4 -- -- -- -- 0 967 -1.4 69
2018-01-13 01:00:00 4.1 -- -- -- -- 0 967.7 -0.9 68
2018-01-13 00:00:00 4.6 -- -- -- -- 0 968.1 -0.6 67
2018-01-12 23:00:00 4.4 -- -- -- -- 0 968.4 0.2 69
2018-01-12 22:00:00 5.3 -- -- -- -- 0 968.6 0.6 65
2018-01-12 21:00:00 5 -- -- -- -- 0 968.7 1.1 68
2018-01-12 20:00:00 5.1 -- -- -- -- 0 968.2 0.6 65
2018-01-12 19:00:00 6.8 -- -- -- -- 0 968 0.5 60
2018-01-12 18:00:00 8.8 -- -- -- -- 0 967.6 0 55
2018-01-12 17:00:00 10 -- -- -- -- 0 967.6 -0.4 51
2018-01-12 16:00:00 9.9 -- -- -- -- 0 967.5 -1.1 52
2018-01-12 15:00:00 10.1 -- -- -- -- 0 967.6 -1.5 51
2018-01-12 14:00:00 10.7 -- -- -- -- 0 968 -1.2 50
2018-01-12 13:00:00 10.4 -- -- -- -- 0 968.6 -0.4 50
2018-01-12 12:00:00 9.3 -- -- -- -- 0 969.1 0.6 56
2018-01-12 11:00:00 9 -- -- -- -- 0 969.2 0.5 56
2018-01-12 10:00:00 7.7 -- -- -- -- 0 969 0.5 63
2018-01-12 09:00:00 6 -- -- -- -- 0 968.5 0.2 70
2018-01-12 08:00:00 5.7 -- -- -- -- 0 968.7 0.5 71
2018-01-12 07:00:00 6 -- -- -- -- 0 968.5 0.4 70
2018-01-12 06:00:00 6 -- -- -- -- 0 968.3 0.2 70
2018-01-12 05:00:00 5.1 -- -- -- -- 0 968.2 0.6 72
2018-01-12 04:00:00 5.7 -- -- -- -- 0 968.1 0.6 70
2018-01-12 03:00:00 5 -- -- -- -- 0 968.1 1.2 74
2018-01-12 02:00:00 4.4 -- -- -- -- 0 967.6 1.1 74
2018-01-12 01:00:00 5.1 -- -- -- -- 0 967.5 0.5 69
2018-01-12 00:00:00 5.4 -- -- -- -- 0 966.9 0.1 66
2018-01-11 23:00:00 5.9 -- -- -- -- 0 966.5 0.5 64
2018-01-11 22:00:00 5.8 -- -- -- -- 0 967 1.5 68
2018-01-11 21:00:00 6.5 -- -- -- -- 0 966.8 1.7 62
2018-01-11 20:00:00 6.7 -- -- -- -- 0 966 1.5 60
2018-01-11 19:00:00 7.1 -- -- -- -- 0 965.5 1.4 57
2018-01-11 18:00:00 7.1 -- -- -- -- 0 965.1 1.5 57
2018-01-11 17:00:00 8.5 -- -- -- -- 0 964.5 1.2 48
2018-01-11 16:00:00 8.7 -- -- -- -- 0 964.1 0.4 45
2018-01-11 15:00:00 8.9 -- -- -- -- 0 963.6 -0.7 44
2018-01-11 14:00:00 9.2 -- -- -- -- 0 963.3 -1 44
2018-01-11 13:00:00 8.9 -- -- -- -- 0 963.7 0.4 46
2018-01-11 12:00:00 8.1 -- -- -- -- 0 964.3 1.7 52
2018-01-11 11:00:00 5.8 -- -- -- -- 0 964.3 2.2 63
2018-01-11 10:00:00 6.3 -- -- -- -- 0 963.3 1.4 58
2018-01-11 09:00:00 5.5 -- -- -- -- 0 962.6 0.8 60
2018-01-11 08:00:00 5.7 -- -- -- -- 0 962.1 0.7 58
2018-01-11 07:00:00 5.7 -- -- -- -- 0 961.9 -0.2 55
2018-01-11 06:00:00 5.5 -- -- -- -- 0 961.8 -0.9 55
2018-01-11 05:00:00 5.2 -- -- -- -- 0 961.4 -1.6 57
2018-01-11 04:00:00 5.3 -- -- -- -- 0 962.1 -0.5 57
2018-01-11 03:00:00 5.5 -- -- -- -- 0 962.7 0.6 58
2018-01-11 02:00:00 6 -- -- -- -- 0 963 1.7 57
2018-01-11 01:00:00 6.7 -- -- -- -- 0 962.6 1.6 54
2018-01-11 00:00:00 7.8 -- -- -- -- 0 962.1 1.4 51
2018-01-10 23:00:00 8.2 -- -- -- -- 0 961.3 0.8 53
2018-01-10 22:00:00 8.4 -- -- -- -- 0 961 0.7 56
2018-01-10 21:00:00 7.2 -- -- -- -- 0 960.7 0.1 63
2018-01-10 20:00:00 9 -- -- -- -- 0 960.5 -0.7 56
2018-01-10 19:00:00 8.7 -- -- -- -- 0 960.3 -1 62
2018-01-10 18:00:00 9.9 -- -- -- -- 0 960.6 -0.2 54
2018-01-10 17:00:00 10.3 -- -- -- -- 0 961.2 0.5 51
2018-01-10 16:00:00 11.7 -- -- -- -- 0 961.3 0 48
2018-01-10 15:00:00 12 -- -- -- -- 0 960.8 -1 51
2018-01-10 14:00:00 11.6 -- -- -- -- 0 960.7 -1.7 58
2018-01-10 13:00:00 12.1 -- -- -- -- 0 961.3 -1.2 53
2018-01-10 12:00:00 10.8 -- -- -- -- 0 961.8 -0.5 61
2018-01-10 11:00:00 9.1 -- -- -- -- 0 962.4 0.5 73
2018-01-10 10:00:00 5.2 -- -- -- -- 0 962.5 0.9 86
2018-01-10 09:00:00 4.7 -- -- -- -- 0 962.3 1.2 86
2018-01-10 08:00:00 2.9 -- -- -- -- 0 961.9 0.7 91
2018-01-10 07:00:00 3 -- -- -- -- 0 961.6 0.2 88
2018-01-10 06:00:00 4.1 -- -- -- -- 0 961.1 -0.8 85
2018-01-10 05:00:00 4 -- -- -- -- 0 961.2 -1 87
2018-01-10 04:00:00 3.8 -- -- -- -- 0 961.4 -1.5 89
2018-01-10 03:00:00 3.6 -- -- -- -- 0 961.9 -1.2 89
2018-01-10 02:00:00 3.9 -- -- -- -- 0 962.2 -0.6 90
2018-01-10 01:00:00 4.1 -- -- -- -- 0.4 962.9 0 90
2018-01-10 00:00:00 3.9 -- -- -- -- 0 963.1 0.1 89
2018-01-09 23:00:00 4 -- -- -- -- 0 962.8 0.1 88
2018-01-09 22:00:00 4.4 -- -- -- -- 0 962.9 0 85
2018-01-09 21:00:00 4.8 -- -- -- -- 0 963 0.5 83
2018-01-09 20:00:00 4.9 -- -- -- -- 0 962.7 0.3 71
2018-01-09 19:00:00 4.3 -- -- -- -- 0 962.9 0.7 76
2018-01-09 18:00:00 6.7 -- -- -- -- 0 962.5 0.5 61
2018-01-09 17:00:00 9.2 -- -- -- -- 0 962.4 0.1 47
2018-01-09 16:00:00 8.1 -- -- -- -- 0 962.2 -0.6 51
2018-01-09 15:00:00 8.1 -- -- -- -- 0 962 -0.9 50
2018-01-09 14:00:00 8.3 -- -- -- -- 0 962.3 -0.7 51
2018-01-09 13:00:00 8 -- -- -- -- 0 962.8 0.2 52
2018-01-09 12:00:00 8.6 -- -- -- -- 0 962.9 1.1 49
2018-01-09 11:00:00 6.3 -- -- -- -- 0 963 1.8 60
2018-01-09 10:00:00 3.5 -- -- -- -- 0 962.6 1.4 66
2018-01-09 09:00:00 1.5 -- -- -- -- 0 961.8 1.2 75
2018-01-09 08:00:00 1.4 -- -- -- -- 0 961.2 0.7 75
2018-01-09 07:00:00 1.5 -- -- -- -- 0 961.2 0.6 75
2018-01-09 06:00:00 1.3 -- -- -- -- 0 960.6 0.3 76
2018-01-09 05:00:00 1.4 -- -- -- -- 0 960.5 0.6 76
2018-01-09 04:00:00 1.5 -- -- -- -- 0 960.6 1 76
2018-01-09 03:00:00 1.5 -- -- -- -- 0 960.3 0.7 77
2018-01-09 02:00:00 2 -- -- -- -- 0 959.9 0.5 70
2018-01-09 01:00:00 1.7 -- -- -- -- 0 959.6 0.5 78
2018-01-09 00:00:00 2.3 -- -- -- -- 0 959.6 1 80
2018-01-08 23:00:00 1.5 -- -- -- -- 0 959.4 1.1 85
2018-01-08 22:00:00 2.9 -- -- -- -- 0 959.1 1 79
2018-01-08 21:00:00 3.9 -- -- -- -- 0 958.6 1.1 75
2018-01-08 20:00:00 2.8 -- -- -- -- 0 958.3 0.8 87
2018-01-08 19:00:00 3.4 -- -- -- -- 0 958.1 1 89
2018-01-08 18:00:00 5 -- -- -- -- 0 957.5 0.6 85
2018-01-08 17:00:00 6.2 -- -- -- -- 0 957.5 0.2 82
2018-01-08 16:00:00 6.7 -- -- -- -- 0 957.1 -0.6 73
2018-01-08 15:00:00 6.7 -- -- -- -- 0 956.9 -0.8 72
2018-01-08 14:00:00 6.8 -- -- -- -- 0 957.3 -0.9 71
2018-01-08 13:00:00 5.1 -- -- -- -- 0 957.7 0.2 77
2018-01-08 12:00:00 3.9 -- -- -- -- 0 957.7 1 83
2018-01-08 11:00:00 3.9 -- -- -- -- 0 958.2 1.8 83
2018-01-08 10:00:00 0.9 -- -- -- -- 0 957.5 1.5 91
2018-01-08 09:00:00 1.1 -- -- -- -- 0 956.7 1.1 90
2018-01-08 08:00:00 1.9 -- -- -- -- 0 956.4 1.1 92
2018-01-08 07:00:00 1.3 -- -- -- -- 0 956 1 92
2018-01-08 06:00:00 1.1 -- -- -- -- 0 955.6 0.8 89
2018-01-08 05:00:00 1.4 -- -- -- -- 0 955.3 0.9 90
2018-01-08 04:00:00 2 -- -- -- -- 0 955 1 91
2018-01-08 03:00:00 2.3 -- -- -- -- 0 954.8 0.8 91
2018-01-08 02:00:00 2.8 -- -- -- -- 0 954.4 0.9 92
2018-01-08 01:00:00 1.7 -- -- -- -- 0 954 0.8 94
2018-01-08 00:00:00 2 -- -- -- -- 0 954 1.3 92
2018-01-07 23:00:00 2.9 -- -- -- -- 0 953.5 1.3 89
2018-01-07 22:00:00 3.9 -- -- -- -- 0 953.2 1.8 88
2018-01-07 21:00:00 4.9 -- -- -- -- 0 952.7 1.8 88
2018-01-07 20:00:00 5.8 -- -- -- -- 0 952.2 2.1 85
2018-01-07 19:00:00 5.7 -- -- -- -- 0 951.4 1.6 88
2018-01-07 18:00:00 5.9 -- -- -- -- 0 950.9 2.1 88
2018-01-07 17:00:00 6 -- -- -- -- 0 950.1 1.6 89
2018-01-07 16:00:00 6 -- -- -- -- 0 949.8 1.6 90
2018-01-07 15:00:00 5.6 -- -- -- -- 0 948.8 0.8 90
2018-01-07 14:00:00 5.4 -- -- -- -- 0 948.5 1.1 88
2018-01-07 13:00:00 5.4 -- -- -- -- 0 948.2 1.5 86
2018-01-07 12:00:00 4.9 -- -- -- -- 0 948 2.1 86
2018-01-07 11:00:00 4 -- -- -- -- 0 947.4 2 92
2018-01-07 10:00:00 3.2 -- -- -- -- 0 946.7 2 94
2018-01-07 09:00:00 2.9 -- -- -- -- 0 945.9 1.8 94
2018-01-07 08:00:00 2.8 -- -- -- -- 0 945.4 1.4 93
2018-01-07 07:00:00 2.6 -- -- -- -- 0.4 944.7 0.8 94
2018-01-07 06:00:00 2.4 -- -- -- -- 0.4 944.1 -0.1 94
2018-01-07 05:00:00 2.4 -- -- -- -- 0.2 944 0.3 95
2018-01-07 04:00:00 2.5 -- -- -- -- 0.6 943.9 0.5 97
2018-01-07 03:00:00 2.5 -- -- -- -- 1 944.2 0.7 97
2018-01-07 02:00:00 3 -- -- -- -- 0 943.7 0.3 97
2018-01-07 01:00:00 3.3 -- -- -- -- 0 943.4 -0.4 97
2018-01-07 00:00:00 3.8 -- -- -- -- 0 943.5 0.9 97
2018-01-06 23:00:00 4.6 -- -- -- -- 2.2 943.4 0.4 97
2018-01-06 22:00:00 -- -- -- -- -- 2.2 943.8 0.5 96
2018-01-06 21:00:00 5.6 -- -- -- -- 2.4 942.6 -0.9 95
2018-01-06 20:00:00 5.6 -- -- -- -- 4.2 943 -0.5 94
2018-01-06 19:00:00 5.6 -- -- -- -- 3.8 943.3 -0.9 94
2018-01-06 18:00:00 6.2 9 Oeste 20 Noroeste 2.2 943.5 -1.2 90
2018-01-06 17:00:00 7.5 10 Noroeste 21 Noroeste 0 943.5 -1.9 79
2018-01-06 16:00:00 8.7 12 Norte 19 Norte 0 944.2 -2.5 69
2018-01-06 15:00:00 8.7 9 Norte 15 Norte 0 944.7 -3 69
2018-01-06 14:00:00 7.9 7 Norte 13 Nordeste 0 945.4 -2.8 73
2018-01-06 13:00:00 7 5 Nordeste 12 Norte 0 946.7 -0.8 77
2018-01-06 12:00:00 6.6 4 Nordeste 9 Este 0 947.7 0.7 80
2018-01-06 11:00:00 5.3 3 Oeste 14 Nordeste 0 948.2 1.8 86
2018-01-06 10:00:00 5.2 6 Este 10 Este 0 947.5 1 86
2018-01-06 09:00:00 5.5 5 Norte 30 Noroeste 0 947 0.1 76
2018-01-06 08:00:00 8.6 8 Oeste 17 Sudoeste 0 946.4 -1.3 58
2018-01-06 07:00:00 8.1 13 Sudoeste 21 Sudeste 0 946.5 -1.4 58
2018-01-06 06:00:00 7.3 6 Sudeste 14 Este 0 946.9 -2.1 60
2018-01-06 05:00:00 6.9 4 Sudoeste 13 Sudoeste 0 947.7 -2.3 60
2018-01-06 04:00:00 8.2 8 Sudoeste 20 Sur 0 947.9 -2.8 55
2018-01-06 03:00:00 7.7 6 Sudeste 23 Sudoeste 0 949 -2.5 60
2018-01-06 02:00:00 8.3 12 Sudoeste 22 Sudoeste 0 950 -1.7 57
2018-01-06 01:00:00 8.8 6 Sur 18 Sudoeste 0 950.7 -1.5 55
2018-01-06 00:00:00 7.6 5 Oeste 14 Sudoeste 0 951.5 -1 58
2018-01-05 23:00:00 7.6 3 Sudoeste 12 Sudoeste 0 951.7 -1 57
2018-01-05 22:00:00 7.3 7 Sudeste 10 Sudeste 0 952.2 -0.7 59
2018-01-05 21:00:00 7.7 4 Oeste 12 Este 0 952.5 -0.5 55
2018-01-05 20:00:00 10.3 6 Oeste 20 Oeste 0 952.7 -0.5 48
2018-01-05 19:00:00 10.9 8 Oeste 14 Oeste 0 952.9 -0.9 45
2018-01-05 18:00:00 13.7 5 Oeste 22 Oeste 0 953 -1.5 37
2018-01-05 17:00:00 16.8 14 Oeste 30 Noroeste 0 953.2 -2.4 30
2018-01-05 16:00:00 17.4 10 Oeste 33 Oeste 0 953.8 -3.3 30
2018-01-05 15:00:00 17.2 17 Noroeste 35 Noroeste 0 954.5 -4 30
2018-01-05 14:00:00 17.3 8 Oeste 22 Sudoeste 0 955.6 -3.8 33
2018-01-05 13:00:00 16.2 8 Sudoeste 28 Sudoeste 0 957.1 -2.7 36
2018-01-05 12:00:00 14.9 9 Sudoeste 22 Sudoeste 0 958.5 -1.4 40
2018-01-05 11:00:00 12.6 10 Sudoeste 21 Sudoeste 0 959.4 -0.2 50
2018-01-05 10:00:00 9.2 15 Sudoeste 23 Sudoeste 0 959.8 0.3 61
2018-01-05 09:00:00 6.9 4 Sudoeste 17 Sudoeste 0 959.9 0 73
2018-01-05 08:00:00 6.9 6 Sudoeste 18 Sudoeste 0 959.6 -1 73
2018-01-05 07:00:00 7.7 5 Sur 15 Sudoeste 0 959.5 -2.1 69
2018-01-05 06:00:00 9.8 13 Sudoeste 27 Sudoeste 0 959.9 -2.3 63
2018-01-05 05:00:00 10.7 17 Sudoeste 28 Sudoeste 0 960.6 -2.5 60
2018-01-05 04:00:00 11.1 11 Sudoeste 39 Sudoeste 0 961.6 -2.5 59
2018-01-05 03:00:00 11.8 24 Sudoeste 36 Sudoeste 0 962.2 -2.8 57
2018-01-05 02:00:00 12.7 24 Sudoeste 36 Sudoeste 0 963.1 -2.4 54
2018-01-05 01:00:00 12.5 16 Sudoeste 30 Sudoeste 0 964.1 -1.9 56
2018-01-05 00:00:00 12.3 13 Sudoeste 24 Sudoeste 0 965 -1.4 57
2018-01-04 23:00:00 11.5 7 Sudeste 19 Sudeste 0 965.5 -0.8 59
2018-01-04 22:00:00 11.1 4 Sur 17 Oeste 0 966 -0.3 59
2018-01-04 21:00:00 12.3 11 Sudoeste 34 Oeste 0 966.4 0.7 55
2018-01-04 20:00:00 12.9 4 Oeste 28 Sudoeste 0 966.3 0.5 53
2018-01-04 19:00:00 13.1 2 Norte 25 Oeste 0 966.3 0.4 51
2018-01-04 18:00:00 15.5 17 Oeste 42 Oeste 0 965.7 -0.7 46
2018-01-04 17:00:00 17.5 25 Oeste -- -- 0 965.8 -1.5 38
2018-01-04 16:00:00 19.6 -- -- -- -- 0 965.9 -2.6 32
2018-01-04 15:00:00 19.4 18 Oeste 39 Oeste 0 966.4 -2.8 34
2018-01-04 14:00:00 18.7 28 Oeste 54 Oeste 0 967.3 -2.2 35
2018-01-04 13:00:00 18.1 27 Oeste 50 Oeste 0 968.5 -1.2 39
2018-01-04 12:00:00 17.6 30 Oeste 49 Oeste 0 969.2 0 40
2018-01-04 11:00:00 16.3 26 Oeste 54 Oeste 0 969.5 0.2 47
2018-01-04 10:00:00 14.6 15 Oeste 32 Oeste 0 969.7 0.3 57
2018-01-04 09:00:00 12.5 3 Noroeste 15 Sudoeste 0 969.2 -0.3 66
2018-01-04 08:00:00 12.3 8 Oeste 18 Sudoeste 0 969.3 -0.6 67
2018-01-04 07:00:00 12 8 Sudoeste 18 Sudoeste 0 969.4 -1.1 67
2018-01-04 06:00:00 13 11 Oeste 29 Sudoeste 0 969.5 -1.4 63
2018-01-04 05:00:00 14.1 23 Oeste 39 Oeste 0 969.9 -1.1 61
2018-01-04 04:00:00 14.4 21 Oeste 37 Oeste 0 970.5 -0.6 61
2018-01-04 03:00:00 14.2 15 Oeste 39 Sudoeste 0 970.9 -0.6 62
2018-01-04 02:00:00 14.6 20 Sudoeste 45 Oeste 0 971 -0.4 61
2018-01-04 01:00:00 14.8 21 Oeste 49 Oeste 0 971.1 -0.6 60
2018-01-04 00:00:00 14.9 21 Oeste 37 Oeste 0 971.5 -0.2 59
2018-01-03 23:00:00 14.8 23 Sudoeste 42 Sudoeste 0 971.4 -0.2 59
2018-01-03 22:00:00 15 18 Sudoeste 43 Sudoeste 0 971.7 0.2 58
2018-01-03 21:00:00 15.3 16 Sudoeste 38 Oeste 0 971.7 0.3 57
2018-01-03 20:00:00 15.4 15 Oeste 34 Oeste 0 971.6 -0.4 57
2018-01-03 19:00:00 15.7 12 Oeste 57 Oeste 0 971.5 -0.1 56
2018-01-03 18:00:00 16.4 26 Oeste 46 Oeste 0 971.4 -0.1 55
2018-01-03 17:00:00 18 25 Oeste 60 Oeste 0 972 -0.4 49
2018-01-03 16:00:00 19 32 Oeste 55 Oeste 0 971.6 -1.6 45
2018-01-03 15:00:00 19.8 32 Oeste 48 Oeste 0 971.5 -2.1 42
2018-01-03 14:00:00 19.5 28 Oeste 45 Oeste 0 972.4 -1.2 43
2018-01-03 13:00:00 18.9 29 Oeste -- -- 0 973.2 0 45
2018-01-03 12:00:00 18.3 25 Oeste 48 Oeste 0 973.6 0.7 46
2018-01-03 11:00:00 16.9 21 Oeste 41 Sudoeste 0 973.6 0.4 51
2018-01-03 10:00:00 14.7 17 Sudoeste -- -- 0 973.2 0.3 58
2018-01-03 09:00:00 14.1 19 Oeste 65 Noroeste 0 972.9 0.3 60
2018-01-03 08:00:00 14 23 Oeste -- -- 0 973.2 0.5 61
2018-01-03 07:00:00 13.5 -- -- -- -- 0 972.9 0.1 63
2018-01-03 06:00:00 13.3 17 Oeste 34 Oeste 0 972.6 0 63
2018-01-03 05:00:00 13.1 17 Oeste 31 Oeste 0 972.7 -0.1 64
2018-01-03 04:00:00 12.9 15 Oeste 32 Oeste 0 972.8 -0.4 64
2018-01-03 03:00:00 13.5 19 Oeste 37 Oeste 0 972.6 -0.8 61
2018-01-03 02:00:00 13.3 17 Sudoeste 39 Sudoeste 0 972.8 -0.2 60
2018-01-03 01:00:00 13.4 21 Sudoeste 41 Sudoeste 0 973.2 0.3 59
2018-01-03 00:00:00 13.1 16 Oeste 33 Oeste 0 973.4 0.9 59
2018-01-02 23:00:00 13.1 14 Oeste 39 Oeste 0 973 0.8 58
2018-01-02 22:00:00 13.7 13 Oeste 50 Oeste 0 972.9 1.4 55
2018-01-02 21:00:00 14.1 28 Oeste 48 Oeste 0 972.5 1.4 54
2018-01-02 20:00:00 14 21 Oeste -- -- 0 972.2 0.8 53
2018-01-02 19:00:00 14.6 24 Oeste 45 Oeste 0 971.5 0 51
2018-01-02 18:00:00 15.1 27 Oeste 59 Oeste 0 971.1 0 50
2018-01-02 17:00:00 16.8 26 Oeste -- -- 0 971.4 -0.2 44
2018-01-02 16:00:00 17.3 -- -- -- -- 0 971.5 -1 41
2018-01-02 15:00:00 17.5 -- -- -- -- 0 971.1 -1.7 39
2018-01-02 14:00:00 17.4 -- -- -- -- 0 971.6 -1.5 38
2018-01-02 13:00:00 16.3 22 Oeste 48 Oeste 0 972.5 -0.1 40
2018-01-02 12:00:00 15.3 23 Oeste 45 Oeste 0 972.8 0.3 42
2018-01-02 11:00:00 13.7 19 Oeste 42 Oeste 0 973.1 0.8 46
2018-01-02 10:00:00 12.1 23 Oeste 45 Noroeste 0 972.6 0.6 50
2018-01-02 09:00:00 10.4 12 Oeste 35 Oeste 0 972.5 0.8 59
2018-01-02 08:00:00 10.4 19 Oeste 44 Oeste 0 972.3 0.3 60
2018-01-02 07:00:00 10.9 21 Oeste 43 Oeste 0 972 -0.3 61
2018-01-02 06:00:00 11.4 20 Oeste 45 Oeste 0 971.7 -1.2 64
2018-01-02 05:00:00 9.6 5 Noroeste 17 Noroeste 0 972 -0.3 82
2018-01-02 04:00:00 9.5 7 Noroeste 20 Noroeste 0 972.3 0.2 81
2018-01-02 03:00:00 9.9 10 Noroeste 19 Norte 0 972.9 0.4 78
2018-01-02 02:00:00 10.7 13 Norte 47 Oeste 0 972.3 0 66
2018-01-02 01:00:00 12.3 25 Oeste 45 Oeste 0 972.1 0.2 52
2018-01-02 00:00:00 12.2 25 Sudoeste 45 Sudoeste 0 972.5 1.5 52
2018-01-01 23:00:00 12.2 26 Sudoeste 50 Sudoeste 0 972.3 2 50
2018-01-01 22:00:00 12.2 27 Sudoeste 51 Sudoeste 0 971.9 2.2 48
2018-01-01 21:00:00 12.2 27 Oeste 53 Oeste 0 971 1.2 45
2018-01-01 20:00:00 12.2 33 Oeste 63 Oeste 0 970.3 -0.6 42
2018-01-01 19:00:00 12.5 29 Oeste 59 Oeste 0 969.7 -0.9 39
2018-01-01 18:00:00 12.9 22 Oeste -- -- 0 969.8 -0.8 34
2018-01-01 17:00:00 13.5 24 Oeste -- -- 0 970.9 -0.2 31
2018-01-01 16:00:00 14.9 -- -- -- -- 0 970.6 -1.4 24
2018-01-01 15:00:00 15.6 25 Oeste 49 Oeste 0 970.6 -2.6 17
2018-01-01 14:00:00 15.3 22 Noroeste 37 Noroeste 0 971.1 -3.4 17
2018-01-01 13:00:00 14.3 23 Oeste 42 Oeste 0 972 -3 20
2018-01-01 12:00:00 12.7 5 Oeste 12 Oeste 0 973.2 -1.8 26
2018-01-01 11:00:00 10.7 5 Noroeste 31 Oeste 0 974.5 0 32
2018-01-01 10:00:00 8.7 7 Noroeste 32 Sudoeste 0 975 1.8 40
2018-01-01 09:00:00 7.5 21 Sudoeste 39 Sudoeste 0 975 1.7 44
2018-01-01 08:00:00 6.6 18 Sudoeste 51 Oeste 0 974.5 1.6 47
2018-01-01 07:00:00 6.9 31 Oeste 50 Oeste 0 973.2 0.9 48
2018-01-01 06:00:00 7 31 Oeste 54 Oeste 0 973.3 1.3 49
2018-01-01 05:00:00 6.6 26 Oeste 46 Oeste 0 972.9 1.5 51
2018-01-01 04:00:00 6.7 21 Oeste 49 Oeste 0 972.3 1.2 49
2018-01-01 03:00:00 6.8 24 Oeste 43 Oeste 0 972 1.3 49
2018-01-01 02:00:00 6.9 22 Oeste 41 Oeste 0 971.4 1.6 49
2018-01-01 01:00:00 6.8 12 Oeste 36 Oeste 0 971.1 2.4 66
2018-01-01 00:00:00 7.3 16 Noroeste 38 Noroeste 0 970.7 4.2 69
2017-12-31 23:00:00 8.1 26 Noroeste 55 Noroeste 0 969.8 4.5 70
2017-12-31 22:00:00 10.4 26 Noroeste 68 Oeste 0 968.7 4.2 61
2017-12-31 21:00:00 12.1 29 Oeste 60 Sudoeste 0 966.5 1.7 53
2017-12-31 20:00:00 13.3 22 Oeste 39 Oeste 0 965.3 0.7 48
2017-12-31 19:00:00 11.8 9 Oeste 21 Noroeste 0 964.5 0.2 50
2017-12-31 18:00:00 13.1 13 Oeste 41 Oeste 0 964.8 0.3 45
2017-12-31 17:00:00 14.6 3 Sudeste 9 Sudoeste 0 964.6 -0.5 45
2017-12-31 16:00:00 13.1 0 Calma 9 Nordeste 0 964.3 -1.7 55
2017-12-31 15:00:00 12.9 5 Este 9 Nordeste 0 964.5 -3 53
2017-12-31 14:00:00 12.6 3 Norte 12 Norte 0 965.1 -3.1 56
2017-12-31 13:00:00 12.1 4 Sur 18 Sudoeste 0 966 -2.1 57
2017-12-31 12:00:00 10.4 5 Sur 10 Sur 0 967.5 0.1 60
2017-12-31 11:00:00 9.6 4 Sudoeste 14 Sudoeste 0 968.2 0.9 63
2017-12-31 10:00:00 7 8 Sudoeste 17 Sudoeste 0 968.1 0.3 68
2017-12-31 09:00:00 5.8 13 Sudoeste 22 Sudoeste 0 967.4 -1.2 70
2017-12-31 08:00:00 6.1 15 Sudoeste 23 Sudoeste 0 967.3 -1.8 67
2017-12-31 07:00:00 5.7 10 Sudoeste 18 Sudoeste 0 967.8 -1.6 73
2017-12-31 06:00:00 5.6 12 Sudoeste 22 Sudoeste 0 968.6 -1.3 73
2017-12-31 05:00:00 5.4 12 Sudoeste 23 Sudoeste 0 969.1 -1 74
2017-12-31 04:00:00 6 12 Sudoeste 18 Sudoeste 0 969.4 -1.3 74
2017-12-31 03:00:00 5.6 5 Sudoeste 16 Sudoeste 0 969.9 -0.8 78
2017-12-31 02:00:00 6.2 7 Sudoeste 13 Sudoeste 0 970.1 -0.5 78
2017-12-31 01:00:00 5.8 6 Sudoeste 12 Sudoeste 0 970.7 -0.1 81